sensor_id;sensor_type;location;lat;lon;timestamp;P1;durP1;ratioP1;P2;durP2;ratioP2
15307;SDS011;7755;52.208;6.964;2022-12-18T00:02:18;48.80;;;30.90;;
15307;SDS011;7755;52.208;6.964;2022-12-18T00:06:21;50.53;;;31.57;;
15307;SDS011;7755;52.208;6.964;2022-12-18T00:10:26;47.77;;;29.87;;
15307;SDS011;7755;52.208;6.964;2022-12-18T00:14:30;53.43;;;29.63;;
15307;SDS011;7755;52.208;6.964;2022-12-18T00:18:35;51.30;;;30.20;;
15307;SDS011;7755;52.208;6.964;2022-12-18T00:22:38;49.37;;;30.37;;
15307;SDS011;7755;52.208;6.964;2022-12-18T00:26:41;47.30;;;28.83;;
15307;SDS011;7755;52.208;6.964;2022-12-18T00:30:46;45.20;;;28.07;;
15307;SDS011;7755;52.208;6.964;2022-12-18T00:34:52;36.70;;;25.13;;
15307;SDS011;7755;52.208;6.964;2022-12-18T00:38:55;35.57;;;23.20;;
15307;SDS011;7755;52.208;6.964;2022-12-18T00:42:59;39.67;;;26.63;;
15307;SDS011;7755;52.208;6.964;2022-12-18T00:47:03;42.53;;;26.90;;
15307;SDS011;7755;52.208;6.964;2022-12-18T00:51:07;40.67;;;26.20;;
15307;SDS011;7755;52.208;6.964;2022-12-18T00:55:10;50.53;;;28.40;;
15307;SDS011;7755;52.208;6.964;2022-12-18T00:59:13;50.03;;;30.23;;
15307;SDS011;7755;52.208;6.964;2022-12-18T01:03:17;43.63;;;28.50;;
15307;SDS011;7755;52.208;6.964;2022-12-18T01:07:20;46.60;;;29.17;;
15307;SDS011;7755;52.208;6.964;2022-12-18T01:11:23;52.70;;;31.27;;
15307;SDS011;7755;52.208;6.964;2022-12-18T01:15:26;43.70;;;26.70;;
15307;SDS011;7755;52.208;6.964;2022-12-18T01:19:30;43.13;;;25.17;;
15307;SDS011;7755;52.208;6.964;2022-12-18T01:23:33;48.30;;;27.10;;
15307;SDS011;7755;52.208;6.964;2022-12-18T01:27:37;37.47;;;24.70;;
15307;SDS011;7755;52.208;6.964;2022-12-18T01:31:39;42.20;;;24.97;;
15307;SDS011;7755;52.208;6.964;2022-12-18T01:35:44;36.37;;;22.90;;
15307;SDS011;7755;52.208;6.964;2022-12-18T01:39:48;42.10;;;25.47;;
15307;SDS011;7755;52.208;6.964;2022-12-18T01:43:52;40.93;;;24.27;;
15307;SDS011;7755;52.208;6.964;2022-12-18T01:47:58;37.77;;;25.40;;
15307;SDS011;7755;52.208;6.964;2022-12-18T01:52:04;36.87;;;24.87;;
15307;SDS011;7755;52.208;6.964;2022-12-18T01:56:07;42.50;;;25.17;;
15307;SDS011;7755;52.208;6.964;2022-12-18T02:00:15;34.77;;;23.23;;
15307;SDS011;7755;52.208;6.964;2022-12-18T02:04:21;38.87;;;24.33;;
15307;SDS011;7755;52.208;6.964;2022-12-18T02:08:29;39.90;;;25.50;;
15307;SDS011;7755;52.208;6.964;2022-12-18T02:12:39;44.93;;;25.37;;
15307;SDS011;7755;52.208;6.964;2022-12-18T02:16:46;41.90;;;25.60;;
15307;SDS011;7755;52.208;6.964;2022-12-18T02:20:57;40.77;;;24.80;;
15307;SDS011;7755;52.208;6.964;2022-12-18T02:25:16;38.30;;;23.40;;
15307;SDS011;7755;52.208;6.964;2022-12-18T02:29:29;39.20;;;25.77;;
15307;SDS011;7755;52.208;6.964;2022-12-18T02:33:37;38.73;;;24.47;;
15307;SDS011;7755;52.208;6.964;2022-12-18T02:37:43;37.40;;;24.57;;
15307;SDS011;7755;52.208;6.964;2022-12-18T02:41:49;38.37;;;23.50;;
15307;SDS011;7755;52.208;6.964;2022-12-18T02:45:56;33.97;;;23.00;;
15307;SDS011;7755;52.208;6.964;2022-12-18T02:50:05;35.17;;;22.47;;
15307;SDS011;7755;52.208;6.964;2022-12-18T02:54:16;35.07;;;22.13;;
15307;SDS011;7755;52.208;6.964;2022-12-18T02:58:28;35.67;;;21.50;;
15307;SDS011;7755;52.208;6.964;2022-12-18T03:02:45;34.67;;;22.90;;
15307;SDS011;7755;52.208;6.964;2022-12-18T03:06:53;34.73;;;22.93;;
15307;SDS011;7755;52.208;6.964;2022-12-18T03:11:02;36.83;;;22.93;;
15307;SDS011;7755;52.208;6.964;2022-12-18T03:15:08;34.07;;;22.40;;
15307;SDS011;7755;52.208;6.964;2022-12-18T03:19:21;35.70;;;23.23;;
15307;SDS011;7755;52.208;6.964;2022-12-18T03:23:34;34.60;;;22.27;;
15307;SDS011;7755;52.208;6.964;2022-12-18T03:27:45;36.23;;;22.43;;
15307;SDS011;7755;52.208;6.964;2022-12-18T03:31:59;35.67;;;21.67;;
15307;SDS011;7755;52.208;6.964;2022-12-18T03:36:08;33.07;;;21.17;;
15307;SDS011;7755;52.208;6.964;2022-12-18T03:40:12;39.87;;;23.13;;
15307;SDS011;7755;52.208;6.964;2022-12-18T03:44:17;33.70;;;23.07;;
15307;SDS011;7755;52.208;6.964;2022-12-18T03:48:27;30.57;;;22.63;;
15307;SDS011;7755;52.208;6.964;2022-12-18T03:52:44;34.43;;;21.27;;
15307;SDS011;7755;52.208;6.964;2022-12-18T03:56:53;36.47;;;21.10;;
15307;SDS011;7755;52.208;6.964;2022-12-18T04:01:03;32.23;;;23.20;;
15307;SDS011;7755;52.208;6.964;2022-12-18T04:05:11;33.27;;;21.90;;
15307;SDS011;7755;52.208;6.964;2022-12-18T04:09:18;38.38;;;29.67;;
15307;SDS011;7755;52.208;6.964;2022-12-18T04:13:22;35.03;;;23.60;;
15307;SDS011;7755;52.208;6.964;2022-12-18T04:17:27;32.53;;;21.67;;
15307;SDS011;7755;52.208;6.964;2022-12-18T04:21:31;32.27;;;21.10;;
15307;SDS011;7755;52.208;6.964;2022-12-18T04:25:35;34.63;;;22.43;;
15307;SDS011;7755;52.208;6.964;2022-12-18T04:29:42;31.63;;;20.67;;
15307;SDS011;7755;52.208;6.964;2022-12-18T04:33:45;38.53;;;22.73;;
15307;SDS011;7755;52.208;6.964;2022-12-18T04:37:48;32.77;;;21.67;;
15307;SDS011;7755;52.208;6.964;2022-12-18T04:41:52;36.13;;;21.13;;
15307;SDS011;7755;52.208;6.964;2022-12-18T04:46:00;34.27;;;20.37;;
15307;SDS011;7755;52.208;6.964;2022-12-18T04:50:04;29.13;;;20.17;;
15307;SDS011;7755;52.208;6.964;2022-12-18T04:54:08;34.57;;;20.07;;
15307;SDS011;7755;52.208;6.964;2022-12-18T04:58:12;32.17;;;21.97;;
15307;SDS011;7755;52.208;6.964;2022-12-18T05:02:15;37.63;;;21.77;;
15307;SDS011;7755;52.208;6.964;2022-12-18T05:06:18;32.17;;;22.63;;
15307;SDS011;7755;52.208;6.964;2022-12-18T05:10:20;36.10;;;22.83;;
15307;SDS011;7755;52.208;6.964;2022-12-18T05:14:24;37.20;;;22.77;;
15307;SDS011;7755;52.208;6.964;2022-12-18T05:18:28;34.97;;;23.77;;
15307;SDS011;7755;52.208;6.964;2022-12-18T05:22:31;36.23;;;21.20;;
15307;SDS011;7755;52.208;6.964;2022-12-18T05:26:34;35.73;;;23.57;;
15307;SDS011;7755;52.208;6.964;2022-12-18T05:30:38;34.43;;;21.60;;
15307;SDS011;7755;52.208;6.964;2022-12-18T05:34:48;36.50;;;22.23;;
15307;SDS011;7755;52.208;6.964;2022-12-18T05:38:51;32.73;;;21.43;;
15307;SDS011;7755;52.208;6.964;2022-12-18T05:42:53;33.00;;;20.50;;
15307;SDS011;7755;52.208;6.964;2022-12-18T05:46:57;33.67;;;20.37;;
15307;SDS011;7755;52.208;6.964;2022-12-18T05:51:04;36.07;;;21.03;;
15307;SDS011;7755;52.208;6.964;2022-12-18T05:55:08;34.33;;;21.30;;
15307;SDS011;7755;52.208;6.964;2022-12-18T05:59:11;34.10;;;21.03;;
15307;SDS011;7755;52.208;6.964;2022-12-18T06:03:15;33.50;;;22.60;;
15307;SDS011;7755;52.208;6.964;2022-12-18T06:07:18;35.73;;;22.47;;
15307;SDS011;7755;52.208;6.964;2022-12-18T06:11:21;30.30;;;22.67;;
15307;SDS011;7755;52.208;6.964;2022-12-18T06:15:26;29.30;;;19.67;;
15307;SDS011;7755;52.208;6.964;2022-12-18T06:19:31;30.03;;;20.53;;
15307;SDS011;7755;52.208;6.964;2022-12-18T06:23:37;37.13;;;22.17;;
15307;SDS011;7755;52.208;6.964;2022-12-18T06:27:40;31.43;;;20.00;;
15307;SDS011;7755;52.208;6.964;2022-12-18T06:31:43;27.00;;;18.80;;
15307;SDS011;7755;52.208;6.964;2022-12-18T06:35:48;30.40;;;20.93;;
15307;SDS011;7755;52.208;6.964;2022-12-18T06:39:51;27.07;;;18.97;;
15307;SDS011;7755;52.208;6.964;2022-12-18T06:43:53;28.23;;;20.07;;
15307;SDS011;7755;52.208;6.964;2022-12-18T06:48:00;31.57;;;19.90;;
15307;SDS011;7755;52.208;6.964;2022-12-18T06:52:04;27.77;;;20.07;;
15307;SDS011;7755;52.208;6.964;2022-12-18T06:56:07;30.77;;;20.60;;
15307;SDS011;7755;52.208;6.964;2022-12-18T07:00:11;32.47;;;20.93;;
15307;SDS011;7755;52.208;6.964;2022-12-18T07:04:15;26.80;;;18.43;;
15307;SDS011;7755;52.208;6.964;2022-12-18T07:08:19;24.30;;;17.63;;
15307;SDS011;7755;52.208;6.964;2022-12-18T07:12:22;29.70;;;18.83;;
15307;SDS011;7755;52.208;6.964;2022-12-18T07:16:25;27.60;;;19.80;;
15307;SDS011;7755;52.208;6.964;2022-12-18T07:20:29;27.13;;;18.90;;
15307;SDS011;7755;52.208;6.964;2022-12-18T07:24:33;21.90;;;17.33;;
15307;SDS011;7755;52.208;6.964;2022-12-18T07:28:38;25.23;;;15.67;;
15307;SDS011;7755;52.208;6.964;2022-12-18T07:32:41;24.90;;;16.63;;
15307;SDS011;7755;52.208;6.964;2022-12-18T07:36:44;20.57;;;15.90;;
15307;SDS011;7755;52.208;6.964;2022-12-18T07:40:48;21.20;;;15.97;;
15307;SDS011;7755;52.208;6.964;2022-12-18T07:44:51;26.23;;;15.93;;
15307;SDS011;7755;52.208;6.964;2022-12-18T07:48:53;21.43;;;14.90;;
15307;SDS011;7755;52.208;6.964;2022-12-18T07:52:56;23.87;;;16.30;;
15307;SDS011;7755;52.208;6.964;2022-12-18T07:57:00;24.90;;;17.33;;
15307;SDS011;7755;52.208;6.964;2022-12-18T08:01:04;24.47;;;17.13;;
15307;SDS011;7755;52.208;6.964;2022-12-18T08:05:08;18.40;;;15.20;;
15307;SDS011;7755;52.208;6.964;2022-12-18T08:09:11;29.17;;;19.83;;
15307;SDS011;7755;52.208;6.964;2022-12-18T08:13:15;26.17;;;19.23;;
15307;SDS011;7755;52.208;6.964;2022-12-18T08:17:18;25.37;;;17.00;;
15307;SDS011;7755;52.208;6.964;2022-12-18T08:21:23;24.83;;;15.07;;
15307;SDS011;7755;52.208;6.964;2022-12-18T08:25:27;23.37;;;16.70;;
15307;SDS011;7755;52.208;6.964;2022-12-18T08:29:33;23.47;;;16.30;;
15307;SDS011;7755;52.208;6.964;2022-12-18T08:33:36;23.37;;;15.17;;
15307;SDS011;7755;52.208;6.964;2022-12-18T08:37:42;20.93;;;14.67;;
15307;SDS011;7755;52.208;6.964;2022-12-18T08:41:45;21.27;;;15.83;;
15307;SDS011;7755;52.208;6.964;2022-12-18T08:46:12;20.70;;;15.17;;
15307;SDS011;7755;52.208;6.964;2022-12-18T08:50:17;18.53;;;14.40;;
15307;SDS011;7755;52.208;6.964;2022-12-18T08:54:21;18.10;;;13.27;;
15307;SDS011;7755;52.208;6.964;2022-12-18T08:58:23;17.73;;;13.57;;
15307;SDS011;7755;52.208;6.964;2022-12-18T09:02:28;17.10;;;14.23;;
15307;SDS011;7755;52.208;6.964;2022-12-18T09:06:31;21.20;;;15.03;;
15307;SDS011;7755;52.208;6.964;2022-12-18T09:10:34;18.37;;;14.30;;
15307;SDS011;7755;52.208;6.964;2022-12-18T09:14:43;18.43;;;13.93;;
15307;SDS011;7755;52.208;6.964;2022-12-18T09:18:47;20.87;;;14.77;;
15307;SDS011;7755;52.208;6.964;2022-12-18T09:22:50;17.50;;;14.13;;
15307;SDS011;7755;52.208;6.964;2022-12-18T09:26:53;19.63;;;14.07;;
15307;SDS011;7755;52.208;6.964;2022-12-18T09:30:58;19.93;;;14.60;;
15307;SDS011;7755;52.208;6.964;2022-12-18T09:35:02;20.27;;;15.10;;
15307;SDS011;7755;52.208;6.964;2022-12-18T09:39:06;18.77;;;15.00;;
15307;SDS011;7755;52.208;6.964;2022-12-18T09:43:12;19.27;;;14.63;;
15307;SDS011;7755;52.208;6.964;2022-12-18T09:47:19;18.63;;;15.07;;
15307;SDS011;7755;52.208;6.964;2022-12-18T09:51:28;17.23;;;14.90;;
15307;SDS011;7755;52.208;6.964;2022-12-18T09:55:36;17.03;;;14.33;;
15307;SDS011;7755;52.208;6.964;2022-12-18T09:59:44;18.27;;;13.67;;
15307;SDS011;7755;52.208;6.964;2022-12-18T10:03:52;16.03;;;13.40;;
15307;SDS011;7755;52.208;6.964;2022-12-18T10:07:58;16.43;;;12.90;;
15307;SDS011;7755;52.208;6.964;2022-12-18T10:12:08;18.17;;;13.50;;
15307;SDS011;7755;52.208;6.964;2022-12-18T10:16:20;16.53;;;12.80;;
15307;SDS011;7755;52.208;6.964;2022-12-18T10:20:32;15.07;;;13.37;;
15307;SDS011;7755;52.208;6.964;2022-12-18T10:24:43;16.03;;;13.83;;
15307;SDS011;7755;52.208;6.964;2022-12-18T10:28:51;17.17;;;12.60;;
15307;SDS011;7755;52.208;6.964;2022-12-18T10:33:05;17.80;;;14.27;;
15307;SDS011;7755;52.208;6.964;2022-12-18T10:37:10;16.03;;;13.83;;
15307;SDS011;7755;52.208;6.964;2022-12-18T10:41:26;17.13;;;13.57;;
15307;SDS011;7755;52.208;6.964;2022-12-18T10:45:29;18.17;;;13.67;;
15307;SDS011;7755;52.208;6.964;2022-12-18T10:49:32;15.97;;;14.23;;
15307;SDS011;7755;52.208;6.964;2022-12-18T10:53:37;14.70;;;13.10;;
15307;SDS011;7755;52.208;6.964;2022-12-18T10:57:43;16.73;;;12.73;;
15307;SDS011;7755;52.208;6.964;2022-12-18T11:01:49;16.07;;;13.53;;
15307;SDS011;7755;52.208;6.964;2022-12-18T11:06:01;15.20;;;13.27;;
15307;SDS011;7755;52.208;6.964;2022-12-18T11:10:15;13.13;;;11.83;;
15307;SDS011;7755;52.208;6.964;2022-12-18T11:14:22;17.63;;;14.47;;
15307;SDS011;7755;52.208;6.964;2022-12-18T11:18:28;15.93;;;12.60;;
15307;SDS011;7755;52.208;6.964;2022-12-18T11:22:32;15.10;;;13.10;;
15307;SDS011;7755;52.208;6.964;2022-12-18T11:26:37;17.17;;;13.80;;
15307;SDS011;7755;52.208;6.964;2022-12-18T11:30:42;14.53;;;12.17;;
15307;SDS011;7755;52.208;6.964;2022-12-18T11:34:45;13.73;;;12.30;;
15307;SDS011;7755;52.208;6.964;2022-12-18T11:38:59;17.07;;;12.43;;
15307;SDS011;7755;52.208;6.964;2022-12-18T11:43:10;14.03;;;12.07;;
15307;SDS011;7755;52.208;6.964;2022-12-18T11:47:24;14.73;;;13.10;;
15307;SDS011;7755;52.208;6.964;2022-12-18T11:51:34;15.37;;;13.57;;
15307;SDS011;7755;52.208;6.964;2022-12-18T11:55:47;14.67;;;12.93;;
15307;SDS011;7755;52.208;6.964;2022-12-18T12:00:00;15.80;;;13.17;;
15307;SDS011;7755;52.208;6.964;2022-12-18T12:04:17;14.13;;;12.47;;
15307;SDS011;7755;52.208;6.964;2022-12-18T12:08:42;14.20;;;12.17;;
15307;SDS011;7755;52.208;6.964;2022-12-18T12:12:58;15.23;;;12.93;;
15307;SDS011;7755;52.208;6.964;2022-12-18T12:17:13;13.73;;;12.30;;
15307;SDS011;7755;52.208;6.964;2022-12-18T12:21:25;14.67;;;12.17;;
15307;SDS011;7755;52.208;6.964;2022-12-18T12:25:36;15.00;;;11.97;;
15307;SDS011;7755;52.208;6.964;2022-12-18T12:29:45;12.77;;;11.57;;
15307;SDS011;7755;52.208;6.964;2022-12-18T12:33:57;12.93;;;10.67;;
15307;SDS011;7755;52.208;6.964;2022-12-18T12:38:10;12.40;;;11.10;;
15307;SDS011;7755;52.208;6.964;2022-12-18T12:42:18;11.80;;;10.60;;
15307;SDS011;7755;52.208;6.964;2022-12-18T12:46:48;13.07;;;11.77;;
15307;SDS011;7755;52.208;6.964;2022-12-18T12:50:54;12.50;;;11.30;;
15307;SDS011;7755;52.208;6.964;2022-12-18T12:54:59;12.87;;;11.47;;
15307;SDS011;7755;52.208;6.964;2022-12-18T12:59:15;12.50;;;11.00;;
15307;SDS011;7755;52.208;6.964;2022-12-18T13:03:27;17.43;;;13.07;;
15307;SDS011;7755;52.208;6.964;2022-12-18T13:07:39;12.23;;;10.67;;
15307;SDS011;7755;52.208;6.964;2022-12-18T13:11:50;13.07;;;11.37;;
15307;SDS011;7755;52.208;6.964;2022-12-18T13:16:10;11.10;;;10.07;;
15307;SDS011;7755;52.208;6.964;2022-12-18T13:20:13;10.53;;;9.53;;
15307;SDS011;7755;52.208;6.964;2022-12-18T13:24:21;12.97;;;10.80;;
15307;SDS011;7755;52.208;6.964;2022-12-18T13:32:57;11.53;;;10.33;;
15307;SDS011;7755;52.208;6.964;2022-12-18T13:37:59;13.27;;;11.87;;
15307;SDS011;7755;52.208;6.964;2022-12-18T13:47:25;13.40;;;11.90;;
15307;SDS011;7755;52.208;6.964;2022-12-18T13:51:34;14.63;;;12.27;;
15307;SDS011;7755;52.208;6.964;2022-12-18T13:55:39;13.57;;;11.20;;
15307;SDS011;7755;52.208;6.964;2022-12-18T13:59:49;13.90;;;12.47;;
15307;SDS011;7755;52.208;6.964;2022-12-18T14:04:06;14.50;;;11.33;;
15307;SDS011;7755;52.208;6.964;2022-12-18T14:08:12;12.63;;;11.30;;
15307;SDS011;7755;52.208;6.964;2022-12-18T14:12:19;12.90;;;11.43;;
15307;SDS011;7755;52.208;6.964;2022-12-18T14:16:43;12.70;;;11.40;;
15307;SDS011;7755;52.208;6.964;2022-12-18T14:20:47;14.80;;;12.03;;
15307;SDS011;7755;52.208;6.964;2022-12-18T14:25:05;13.77;;;11.87;;
15307;SDS011;7755;52.208;6.964;2022-12-18T14:29:22;13.73;;;11.80;;
15307;SDS011;7755;52.208;6.964;2022-12-18T14:33:28;14.20;;;11.47;;
15307;SDS011;7755;52.208;6.964;2022-12-18T14:37:31;14.47;;;12.43;;
15307;SDS011;7755;52.208;6.964;2022-12-18T14:41:34;13.70;;;12.23;;
15307;SDS011;7755;52.208;6.964;2022-12-18T14:45:41;13.03;;;11.73;;
15307;SDS011;7755;52.208;6.964;2022-12-18T14:49:45;14.57;;;12.47;;
15307;SDS011;7755;52.208;6.964;2022-12-18T14:53:48;15.20;;;13.60;;
15307;SDS011;7755;52.208;6.964;2022-12-18T14:57:56;16.37;;;13.40;;
15307;SDS011;7755;52.208;6.964;2022-12-18T15:02:02;15.77;;;12.83;;
15307;SDS011;7755;52.208;6.964;2022-12-18T15:06:16;14.80;;;12.37;;
15307;SDS011;7755;52.208;6.964;2022-12-18T15:10:21;12.77;;;11.37;;
15307;SDS011;7755;52.208;6.964;2022-12-18T15:14:32;12.80;;;11.40;;
15307;SDS011;7755;52.208;6.964;2022-12-18T15:18:44;14.63;;;12.93;;
15307;SDS011;7755;52.208;6.964;2022-12-18T15:22:49;15.80;;;12.93;;
15307;SDS011;7755;52.208;6.964;2022-12-18T15:26:51;15.13;;;13.63;;
15307;SDS011;7755;52.208;6.964;2022-12-18T15:30:58;20.23;;;17.93;;
15307;SDS011;7755;52.208;6.964;2022-12-18T15:35:07;20.50;;;17.30;;
15307;SDS011;7755;52.208;6.964;2022-12-18T15:39:15;20.03;;;16.40;;
15307;SDS011;7755;52.208;6.964;2022-12-18T15:43:18;19.73;;;16.87;;
15307;SDS011;7755;52.208;6.964;2022-12-18T15:47:39;20.53;;;16.53;;
15307;SDS011;7755;52.208;6.964;2022-12-18T15:51:44;24.67;;;20.13;;
15307;SDS011;7755;52.208;6.964;2022-12-18T15:55:51;18.37;;;15.13;;
15307;SDS011;7755;52.208;6.964;2022-12-18T16:00:12;18.20;;;16.20;;
15307;SDS011;7755;52.208;6.964;2022-12-18T16:04:16;16.40;;;14.73;;
15307;SDS011;7755;52.208;6.964;2022-12-18T16:08:23;17.37;;;14.87;;
15307;SDS011;7755;52.208;6.964;2022-12-18T16:12:25;15.43;;;12.97;;
15307;SDS011;7755;52.208;6.964;2022-12-18T16:16:28;15.40;;;13.77;;
15307;SDS011;7755;52.208;6.964;2022-12-18T16:20:31;15.40;;;13.37;;
15307;SDS011;7755;52.208;6.964;2022-12-18T16:24:36;17.77;;;13.27;;
15307;SDS011;7755;52.208;6.964;2022-12-18T16:28:40;17.20;;;13.20;;
15307;SDS011;7755;52.208;6.964;2022-12-18T16:32:48;16.47;;;13.20;;
15307;SDS011;7755;52.208;6.964;2022-12-18T16:36:52;14.27;;;12.77;;
15307;SDS011;7755;52.208;6.964;2022-12-18T16:41:03;17.87;;;13.37;;
15307;SDS011;7755;52.208;6.964;2022-12-18T16:45:34;17.07;;;13.43;;
15307;SDS011;7755;52.208;6.964;2022-12-18T16:49:37;17.20;;;14.07;;
15307;SDS011;7755;52.208;6.964;2022-12-18T16:53:40;21.57;;;18.47;;
15307;SDS011;7755;52.208;6.964;2022-12-18T16:57:45;25.87;;;22.17;;
15307;SDS011;7755;52.208;6.964;2022-12-18T17:01:47;18.37;;;16.13;;
15307;SDS011;7755;52.208;6.964;2022-12-18T17:05:51;14.20;;;12.43;;
15307;SDS011;7755;52.208;6.964;2022-12-18T17:09:54;13.83;;;12.27;;
15307;SDS011;7755;52.208;6.964;2022-12-18T17:13:58;17.00;;;13.07;;
15307;SDS011;7755;52.208;6.964;2022-12-18T17:18:02;15.83;;;12.80;;
15307;SDS011;7755;52.208;6.964;2022-12-18T17:22:05;14.23;;;12.43;;
15307;SDS011;7755;52.208;6.964;2022-12-18T17:26:08;15.63;;;13.07;;
15307;SDS011;7755;52.208;6.964;2022-12-18T17:30:14;13.47;;;11.00;;
15307;SDS011;7755;52.208;6.964;2022-12-18T17:34:17;14.27;;;12.23;;
15307;SDS011;7755;52.208;6.964;2022-12-18T17:38:22;12.87;;;11.57;;
15307;SDS011;7755;52.208;6.964;2022-12-18T17:42:24;14.83;;;12.43;;
15307;SDS011;7755;52.208;6.964;2022-12-18T17:46:29;18.90;;;14.13;;
15307;SDS011;7755;52.208;6.964;2022-12-18T17:51:00;16.83;;;14.23;;
15307;SDS011;7755;52.208;6.964;2022-12-18T17:55:03;14.37;;;12.80;;
15307;SDS011;7755;52.208;6.964;2022-12-18T17:59:07;16.37;;;13.77;;
15307;SDS011;7755;52.208;6.964;2022-12-18T18:03:13;15.10;;;13.50;;
15307;SDS011;7755;52.208;6.964;2022-12-18T18:07:16;18.73;;;15.77;;
15307;SDS011;7755;52.208;6.964;2022-12-18T18:11:19;15.57;;;13.97;;
15307;SDS011;7755;52.208;6.964;2022-12-18T18:15:40;15.83;;;13.03;;
15307;SDS011;7755;52.208;6.964;2022-12-18T18:19:45;14.23;;;12.77;;
15307;SDS011;7755;52.208;6.964;2022-12-18T18:23:50;15.70;;;12.13;;
15307;SDS011;7755;52.208;6.964;2022-12-18T18:27:53;20.50;;;15.03;;
15307;SDS011;7755;52.208;6.964;2022-12-18T18:31:56;15.97;;;13.10;;
15307;SDS011;7755;52.208;6.964;2022-12-18T18:36:01;17.67;;;11.87;;
15307;SDS011;7755;52.208;6.964;2022-12-18T18:40:05;15.93;;;13.50;;
15307;SDS011;7755;52.208;6.964;2022-12-18T18:44:08;17.57;;;13.57;;
15307;SDS011;7755;52.208;6.964;2022-12-18T18:48:11;18.20;;;14.63;;
15307;SDS011;7755;52.208;6.964;2022-12-18T18:52:15;15.77;;;13.80;;
15307;SDS011;7755;52.208;6.964;2022-12-18T18:56:20;18.23;;;15.27;;
15307;SDS011;7755;52.208;6.964;2022-12-18T19:00:52;21.60;;;17.57;;
15307;SDS011;7755;52.208;6.964;2022-12-18T19:04:56;20.47;;;15.30;;
15307;SDS011;7755;52.208;6.964;2022-12-18T19:09:02;20.13;;;15.87;;
15307;SDS011;7755;52.208;6.964;2022-12-18T19:13:07;20.70;;;17.27;;
15307;SDS011;7755;52.208;6.964;2022-12-18T19:17:27;18.57;;;15.87;;
15307;SDS011;7755;52.208;6.964;2022-12-18T19:21:32;21.87;;;18.00;;
15307;SDS011;7755;52.208;6.964;2022-12-18T19:25:37;23.37;;;17.60;;
15307;SDS011;7755;52.208;6.964;2022-12-18T19:29:43;21.93;;;17.77;;
15307;SDS011;7755;52.208;6.964;2022-12-18T19:33:46;21.90;;;18.10;;
15307;SDS011;7755;52.208;6.964;2022-12-18T19:37:49;26.93;;;19.27;;
15307;SDS011;7755;52.208;6.964;2022-12-18T19:41:53;22.77;;;18.33;;
15307;SDS011;7755;52.208;6.964;2022-12-18T19:45:56;23.60;;;20.00;;
15307;SDS011;7755;52.208;6.964;2022-12-18T19:49:59;25.57;;;18.97;;
15307;SDS011;7755;52.208;6.964;2022-12-18T19:54:02;22.27;;;18.70;;
15307;SDS011;7755;52.208;6.964;2022-12-18T19:58:07;23.43;;;20.27;;
15307;SDS011;7755;52.208;6.964;2022-12-18T20:02:10;25.80;;;20.20;;
15307;SDS011;7755;52.208;6.964;2022-12-18T20:06:17;27.90;;;19.90;;
15307;SDS011;7755;52.208;6.964;2022-12-18T20:10:22;26.10;;;19.97;;
15307;SDS011;7755;52.208;6.964;2022-12-18T20:14:26;23.10;;;19.63;;
15307;SDS011;7755;52.208;6.964;2022-12-18T20:18:28;29.10;;;21.47;;
15307;SDS011;7755;52.208;6.964;2022-12-18T20:22:31;29.07;;;22.03;;
15307;SDS011;7755;52.208;6.964;2022-12-18T20:26:34;27.43;;;24.50;;
15307;SDS011;7755;52.208;6.964;2022-12-18T20:30:38;26.13;;;22.13;;
15307;SDS011;7755;52.208;6.964;2022-12-18T20:34:41;25.60;;;20.63;;
15307;SDS011;7755;52.208;6.964;2022-12-18T20:38:44;29.13;;;21.30;;
15307;SDS011;7755;52.208;6.964;2022-12-18T20:42:47;31.17;;;22.53;;
15307;SDS011;7755;52.208;6.964;2022-12-18T20:46:54;26.93;;;20.90;;
15307;SDS011;7755;52.208;6.964;2022-12-18T20:50:59;25.83;;;21.33;;
15307;SDS011;7755;52.208;6.964;2022-12-18T20:55:04;23.30;;;20.83;;
15307;SDS011;7755;52.208;6.964;2022-12-18T20:59:08;29.30;;;21.13;;
15307;SDS011;7755;52.208;6.964;2022-12-18T21:03:12;28.80;;;21.27;;
15307;SDS011;7755;52.208;6.964;2022-12-18T21:07:15;31.37;;;23.97;;
15307;SDS011;7755;52.208;6.964;2022-12-18T21:11:25;26.77;;;20.77;;
15307;SDS011;7755;52.208;6.964;2022-12-18T21:15:47;27.10;;;21.00;;
15307;SDS011;7755;52.208;6.964;2022-12-18T21:19:51;29.63;;;22.30;;
15307;SDS011;7755;52.208;6.964;2022-12-18T21:23:55;30.13;;;23.00;;
15307;SDS011;7755;52.208;6.964;2022-12-18T21:27:57;30.57;;;22.17;;
15307;SDS011;7755;52.208;6.964;2022-12-18T21:32:01;28.80;;;21.23;;
15307;SDS011;7755;52.208;6.964;2022-12-18T21:36:06;28.80;;;22.13;;
15307;SDS011;7755;52.208;6.964;2022-12-18T21:40:10;32.77;;;25.00;;
15307;SDS011;7755;52.208;6.964;2022-12-18T21:44:14;31.53;;;23.07;;
15307;SDS011;7755;52.208;6.964;2022-12-18T21:48:18;30.67;;;23.57;;
15307;SDS011;7755;52.208;6.964;2022-12-18T21:52:22;31.83;;;24.03;;
15307;SDS011;7755;52.208;6.964;2022-12-18T21:56:45;30.03;;;22.80;;
15307;SDS011;7755;52.208;6.964;2022-12-18T22:00:49;32.93;;;24.67;;
15307;SDS011;7755;52.208;6.964;2022-12-18T22:04:52;34.23;;;23.53;;
15307;SDS011;7755;52.208;6.964;2022-12-18T22:08:56;34.90;;;24.93;;
15307;SDS011;7755;52.208;6.964;2022-12-18T22:12:58;32.77;;;24.37;;
15307;SDS011;7755;52.208;6.964;2022-12-18T22:17:01;33.40;;;24.70;;
15307;SDS011;7755;52.208;6.964;2022-12-18T22:21:05;37.43;;;25.27;;
15307;SDS011;7755;52.208;6.964;2022-12-18T22:25:10;35.23;;;23.33;;
15307;SDS011;7755;52.208;6.964;2022-12-18T22:29:13;35.20;;;25.63;;
15307;SDS011;7755;52.208;6.964;2022-12-18T22:33:36;32.60;;;24.83;;
15307;SDS011;7755;52.208;6.964;2022-12-18T22:37:38;35.93;;;25.80;;
15307;SDS011;7755;52.208;6.964;2022-12-18T22:41:42;35.23;;;25.53;;
15307;SDS011;7755;52.208;6.964;2022-12-18T22:45:45;39.37;;;26.83;;
15307;SDS011;7755;52.208;6.964;2022-12-18T22:49:49;34.77;;;25.10;;
15307;SDS011;7755;52.208;6.964;2022-12-18T22:53:52;37.63;;;26.80;;
15307;SDS011;7755;52.208;6.964;2022-12-18T22:57:56;38.33;;;26.67;;
15307;SDS011;7755;52.208;6.964;2022-12-18T23:01:59;36.43;;;26.93;;
15307;SDS011;7755;52.208;6.964;2022-12-18T23:06:02;39.13;;;25.73;;
15307;SDS011;7755;52.208;6.964;2022-12-18T23:10:07;35.47;;;26.07;;
15307;SDS011;7755;52.208;6.964;2022-12-18T23:14:12;36.17;;;25.80;;
15307;SDS011;7755;52.208;6.964;2022-12-18T23:18:15;38.80;;;27.73;;
15307;SDS011;7755;52.208;6.964;2022-12-18T23:22:18;38.00;;;25.83;;
15307;SDS011;7755;52.208;6.964;2022-12-18T23:26:21;37.10;;;24.83;;
15307;SDS011;7755;52.208;6.964;2022-12-18T23:30:26;36.57;;;24.13;;
15307;SDS011;7755;52.208;6.964;2022-12-18T23:34:29;37.53;;;25.17;;
15307;SDS011;7755;52.208;6.964;2022-12-18T23:38:32;38.07;;;25.33;;
15307;SDS011;7755;52.208;6.964;2022-12-18T23:42:38;34.97;;;24.97;;
15307;SDS011;7755;52.208;6.964;2022-12-18T23:46:42;37.37;;;23.97;;
15307;SDS011;7755;52.208;6.964;2022-12-18T23:50:44;35.37;;;24.87;;
15307;SDS011;7755;52.208;6.964;2022-12-18T23:54:47;39.50;;;24.93;;
15307;SDS011;7755;52.208;6.964;2022-12-18T23:58:50;34.90;;;25.07;;
